createdAt,value
2019-03-26T00:01:20.423Z,5.07
2019-03-26T00:03:49.212Z,6.43
2019-03-26T00:06:18.091Z,4.77
2019-03-26T00:08:46.901Z,5.47
2019-03-26T00:11:15.652Z,6.13
2019-03-26T00:13:44.516Z,6.33
2019-03-26T00:16:13.300Z,3.50
2019-03-26T00:18:42.046Z,9.77
2019-03-26T00:21:10.853Z,7.40
2019-03-26T00:23:39.587Z,6.30
2019-03-26T00:26:08.324Z,5.83
2019-03-26T00:28:37.141Z,5.47
2019-03-26T00:31:05.957Z,4.40
2019-03-26T00:33:36.667Z,7.97
2019-03-26T00:36:05.219Z,5.87
2019-03-26T00:38:33.978Z,9.83
2019-03-26T00:41:03.460Z,6.07
2019-03-26T00:43:32.258Z,6.80
2019-03-26T00:46:01.036Z,6.30
2019-03-26T00:48:29.843Z,6.93
2019-03-26T00:50:58.691Z,6.73
2019-03-26T00:53:27.442Z,7.10
2019-03-26T00:55:56.201Z,6.23
2019-03-26T00:58:25.076Z,6.67
2019-03-26T01:00:53.899Z,8.20
2019-03-26T01:03:22.626Z,5.90
2019-03-26T01:05:51.502Z,8.50
2019-03-26T01:08:20.332Z,6.73
2019-03-26T01:10:49.083Z,6.07
2019-03-26T01:13:17.980Z,8.37
2019-03-26T01:15:46.652Z,6.87
2019-03-26T01:18:15.383Z,5.47
2019-03-26T01:20:44.156Z,8.90
2019-03-26T01:23:12.993Z,5.63
2019-03-26T01:25:41.740Z,8.10
2019-03-26T01:28:10.547Z,6.73
2019-03-26T01:30:39.355Z,10.37
2019-03-26T01:33:08.124Z,7.20
2019-03-26T01:35:36.914Z,8.80
2019-03-26T01:38:05.667Z,5.57
2019-03-26T01:40:34.437Z,5.67
2019-03-26T01:43:04.083Z,6.73
2019-03-26T01:45:32.809Z,11.47
2019-03-26T01:48:01.557Z,7.57
2019-03-26T01:50:30.363Z,6.60
2019-03-26T01:52:59.107Z,5.53
2019-03-26T01:55:27.946Z,7.70
2019-03-26T01:57:56.980Z,6.43
2019-03-26T02:00:25.804Z,6.43
2019-03-26T02:02:54.620Z,11.60
2019-03-26T02:05:23.466Z,5.13
2019-03-26T02:07:52.227Z,8.20
2019-03-26T02:10:20.987Z,6.60
2019-03-26T02:12:49.788Z,7.40
2019-03-26T02:15:29.258Z,7.93
2019-03-26T02:17:58.332Z,7.17
2019-03-26T02:20:27.150Z,5.87
2019-03-26T02:22:55.953Z,10.37
2019-03-26T02:25:24.798Z,11.57
2019-03-26T02:27:53.531Z,9.37
2019-03-26T02:30:22.373Z,10.67
2019-03-26T02:32:51.229Z,11.27
2019-03-26T02:35:19.970Z,6.70
2019-03-26T02:37:48.786Z,8.20
2019-03-26T02:40:17.640Z,9.20
2019-03-26T02:42:46.466Z,12.80
2019-03-26T02:45:15.306Z,9.93
2019-03-26T02:47:44.206Z,8.33
2019-03-26T02:50:13.221Z,11.80
2019-03-26T02:52:42.092Z,11.30
2019-03-26T02:55:11.092Z,10.73
2019-03-26T02:57:39.909Z,13.67
2019-03-26T03:00:10.372Z,11.37
2019-03-26T03:02:39.202Z,18.03
2019-03-26T03:05:08.261Z,13.63
2019-03-26T03:07:37.004Z,11.17
2019-03-26T03:10:06.972Z,15.50
2019-03-26T03:12:35.715Z,16.23
2019-03-26T03:15:05.566Z,13.23
2019-03-26T03:17:34.460Z,14.13
2019-03-26T03:20:03.488Z,10.33
2019-03-26T03:22:32.306Z,13.20
2019-03-26T03:25:01.191Z,14.53
2019-03-26T03:27:29.932Z,10.70
2019-03-26T03:29:58.700Z,12.87
2019-03-26T03:32:27.563Z,14.10
2019-03-26T03:34:56.460Z,15.90
2019-03-26T03:37:25.320Z,10.77
2019-03-26T03:39:54.124Z,13.47
2019-03-26T03:42:22.970Z,11.73
2019-03-26T03:44:51.819Z,13.83
2019-03-26T03:47:21.761Z,13.50
2019-03-26T03:49:50.899Z,14.07
2019-03-26T03:52:21.300Z,12.30
2019-03-26T03:54:51.140Z,15.97
2019-03-26T03:57:23.284Z,14.03
2019-03-26T03:59:53.509Z,14.17
2019-03-26T04:02:22.394Z,16.93
2019-03-26T04:04:51.207Z,20.03
2019-03-26T04:07:20.020Z,13.83
2019-03-26T04:09:48.892Z,15.20
2019-03-26T04:12:17.786Z,14.73
2019-03-26T04:14:46.793Z,13.40
2019-03-26T04:17:15.676Z,13.37
2019-03-26T04:19:44.471Z,15.13
2019-03-26T04:22:13.349Z,15.27
2019-03-26T04:24:42.236Z,12.17
2019-03-26T04:27:11.140Z,14.67
2019-03-26T04:29:39.946Z,14.87
2019-03-26T04:32:08.853Z,13.37
2019-03-26T04:34:37.643Z,16.50
2019-03-26T04:37:06.492Z,12.97
2019-03-26T04:39:35.290Z,11.80
2019-03-26T04:42:04.211Z,14.13
2019-03-26T04:44:33.011Z,12.63
2019-03-26T04:47:01.995Z,18.80
2019-03-26T04:49:30.747Z,16.83
2019-03-26T04:51:59.644Z,12.10
2019-03-26T04:54:28.540Z,8.97
2019-03-26T04:56:57.404Z,13.60
2019-03-26T04:59:26.250Z,14.27
2019-03-26T05:01:55.246Z,16.13
2019-03-26T05:04:24.108Z,11.40
2019-03-26T05:06:52.851Z,12.53
2019-03-26T05:09:21.738Z,13.77
2019-03-26T05:11:50.571Z,10.63
2019-03-26T05:14:19.323Z,11.20
2019-03-26T05:16:48.243Z,10.57
2019-03-26T05:19:17.004Z,14.20
2019-03-26T05:21:45.859Z,13.77
2019-03-26T05:24:14.748Z,12.70
2019-03-26T05:26:43.652Z,9.97
2019-03-26T05:29:12.513Z,11.47
2019-03-26T05:31:41.499Z,11.10
2019-03-26T05:34:10.324Z,12.40
2019-03-26T05:36:50.687Z,10.43
2019-03-26T05:39:09.601Z,9.23
2019-03-26T05:41:38.398Z,11.87
2019-03-26T05:44:07.302Z,11.73
2019-03-26T05:46:36.333Z,11.87
2019-03-26T05:49:05.216Z,12.97
2019-03-26T05:51:34.058Z,11.03
2019-03-26T05:54:03.083Z,11.43
2019-03-26T05:56:31.874Z,13.77
2019-03-26T05:59:00.764Z,8.50
2019-03-26T06:01:29.747Z,13.83
2019-03-26T06:03:58.555Z,9.63
2019-03-26T06:06:27.449Z,9.73
2019-03-26T06:08:56.611Z,13.70
2019-03-26T06:11:25.531Z,11.10
2019-03-26T06:13:54.427Z,11.47
2019-03-26T06:16:23.332Z,14.70
2019-03-26T06:18:52.204Z,13.67
2019-03-26T06:21:20.940Z,13.77
2019-03-26T06:23:49.795Z,12.20
2019-03-26T06:26:18.666Z,10.50
2019-03-26T06:28:47.509Z,11.17
2019-03-26T06:31:16.571Z,17.20
2019-03-26T06:33:45.645Z,11.67
2019-03-26T06:36:14.659Z,17.57
2019-03-26T06:38:43.531Z,15.87
2019-03-26T06:41:12.357Z,9.93
2019-03-26T06:43:41.214Z,16.47
2019-03-26T06:46:10.045Z,19.13
2019-03-26T06:48:38.860Z,12.33
2019-03-26T06:51:07.636Z,11.70
2019-03-26T06:53:36.587Z,12.97
2019-03-26T06:56:05.395Z,17.37
2019-03-26T06:58:34.410Z,14.20
2019-03-26T07:01:03.469Z,11.43
2019-03-26T07:03:32.291Z,17.50
2019-03-26T07:06:01.115Z,21.83
2019-03-26T07:08:29.914Z,14.57
2019-03-26T07:10:58.755Z,15.07
2019-03-26T07:13:27.587Z,14.33
2019-03-26T07:15:56.571Z,17.20
2019-03-26T07:18:25.330Z,13.53
2019-03-26T07:20:54.078Z,12.87
2019-03-26T07:23:22.988Z,15.93
2019-03-26T07:25:52.836Z,16.83
2019-03-26T07:28:21.684Z,14.80
2019-03-26T07:30:50.529Z,15.43
2019-03-26T07:33:19.379Z,17.10
2019-03-26T07:35:48.204Z,16.10
2019-03-26T07:38:17.076Z,15.73
2019-03-26T07:40:45.873Z,20.00
2019-03-26T07:43:14.692Z,15.43
2019-03-26T07:45:44.612Z,14.43
2019-03-26T07:48:13.462Z,15.30
2019-03-26T07:50:42.299Z,14.20
2019-03-26T07:53:11.189Z,12.60
2019-03-26T07:55:40.035Z,16.10
2019-03-26T07:58:08.787Z,14.00
2019-03-26T08:00:38.436Z,13.57
2019-03-26T08:03:07.262Z,12.37
2019-03-26T08:05:36.083Z,11.77
2019-03-26T08:08:04.975Z,14.50
2019-03-26T08:10:33.710Z,7.63
2019-03-26T08:13:02.549Z,11.40
2019-03-26T08:15:31.527Z,8.37
2019-03-26T08:18:00.244Z,8.70
2019-03-26T08:20:29.063Z,7.87
2019-03-26T08:22:57.956Z,8.40
2019-03-26T08:25:26.763Z,10.97
2019-03-26T08:27:55.514Z,7.47
2019-03-26T08:30:24.299Z,12.53
2019-03-26T08:32:53.086Z,13.23
2019-03-26T08:35:21.890Z,9.00
2019-03-26T08:37:50.674Z,7.90
2019-03-26T08:40:19.436Z,5.83
2019-03-26T08:42:48.294Z,9.13
2019-03-26T08:45:17.284Z,9.47
2019-03-26T08:47:46.018Z,6.10
2019-03-26T08:50:14.892Z,3.93
2019-03-26T08:52:43.756Z,10.23
2019-03-26T08:55:13.271Z,9.10
2019-03-26T08:57:42.100Z,5.87
2019-03-26T09:00:12.685Z,8.20
2019-03-26T09:02:41.493Z,4.97
2019-03-26T09:05:10.420Z,4.07
2019-03-26T09:07:39.314Z,6.00
2019-03-26T09:10:11.207Z,6.73
2019-03-26T09:12:40.068Z,7.43
2019-03-26T09:15:14.180Z,10.87
2019-03-26T09:17:44.149Z,3.00
2019-03-26T09:20:12.189Z,10.47
2019-03-26T09:22:41.070Z,5.97
2019-03-26T09:25:10.308Z,8.57
2019-03-26T09:27:39.139Z,5.73
2019-03-26T09:30:10.428Z,3.53
2019-03-26T09:32:39.758Z,2.73
2019-03-26T09:35:09.489Z,9.03
2019-03-26T09:37:38.434Z,7.57
2019-03-26T09:40:09.071Z,9.90
2019-03-26T09:42:38.303Z,13.97
2019-03-26T09:45:12.069Z,6.07
2019-03-26T09:47:40.884Z,5.90
2019-03-26T09:50:11.694Z,6.87
2019-03-26T09:52:41.652Z,7.60
2019-03-26T09:55:31.167Z,3.83
2019-03-26T09:58:00.022Z,6.50
2019-03-26T10:00:28.850Z,4.53
2019-03-26T10:02:57.645Z,5.30
2019-03-26T10:05:26.532Z,8.53
2019-03-26T10:07:55.354Z,3.40
2019-03-26T10:10:24.180Z,3.13
2019-03-26T10:12:53.052Z,4.87
2019-03-26T10:15:21.780Z,6.33
2019-03-26T10:17:51.882Z,3.30
2019-03-26T10:20:20.879Z,6.57
2019-03-26T10:22:49.836Z,4.73
2019-03-26T10:25:18.632Z,6.13
2019-03-26T10:27:47.444Z,7.27
2019-03-26T10:30:18.869Z,6.77
2019-03-26T10:32:47.613Z,3.93
2019-03-26T10:35:16.429Z,2.97
2019-03-26T10:37:45.187Z,5.43
2019-03-26T10:40:16.940Z,3.50
2019-03-26T10:42:45.788Z,2.73
2019-03-26T10:45:14.685Z,2.30
2019-03-26T10:47:43.454Z,2.73
2019-03-26T10:50:12.236Z,5.10
2019-03-26T10:52:40.990Z,2.80
2019-03-26T10:55:09.948Z,1.17
2019-03-26T10:57:38.830Z,1.13
2019-03-26T11:00:08.339Z,6.40
2019-03-26T11:02:37.141Z,10.67
2019-03-26T11:05:07.989Z,5.13
2019-03-26T11:07:36.806Z,4.23
2019-03-26T11:10:07.165Z,2.27
2019-03-26T11:12:36.013Z,2.30
2019-03-26T11:15:08.805Z,7.00
2019-03-26T11:17:37.703Z,6.07
2019-03-26T11:20:07.909Z,4.93
2019-03-26T11:22:36.949Z,3.43
2019-03-26T11:25:11.969Z,2.07
2019-03-26T11:27:39.880Z,10.23
2019-03-26T11:30:09.507Z,2.73
2019-03-26T11:32:38.344Z,4.13
2019-03-26T11:35:08.037Z,2.27
2019-03-26T11:37:36.889Z,3.27
2019-03-26T11:40:07.707Z,6.23
2019-03-26T11:42:36.661Z,2.53
2019-03-26T11:45:09.749Z,2.93
2019-03-26T11:47:39.683Z,9.57
2019-03-26T11:50:10.123Z,4.60
2019-03-26T11:52:39.958Z,2.03
2019-03-26T11:55:10.920Z,3.80
2019-03-26T11:57:39.748Z,4.73
2019-03-26T12:00:11.156Z,4.97
2019-03-26T12:02:39.894Z,2.00
2019-03-26T12:05:09.965Z,5.87
2019-03-26T12:07:38.815Z,3.77
2019-03-26T12:10:09.332Z,3.73
2019-03-26T12:12:38.308Z,8.17
2019-03-26T12:15:08.469Z,6.70
2019-03-26T12:17:37.299Z,6.00
2019-03-26T12:20:07.826Z,3.37
2019-03-26T12:22:36.624Z,6.53
2019-03-26T12:25:10.014Z,3.83
2019-03-26T12:27:38.925Z,5.27
2019-03-26T12:30:08.751Z,2.27
2019-03-26T12:32:40.668Z,4.60
2019-03-26T12:35:10.005Z,4.13
2019-03-26T12:37:38.827Z,8.40
2019-03-26T12:40:08.277Z,1.73
2019-03-26T12:42:37.087Z,5.13
2019-03-26T12:45:07.386Z,3.03
2019-03-26T12:47:36.328Z,6.67
2019-03-26T12:50:07.133Z,1.67
2019-03-26T12:52:35.900Z,2.90
2019-03-26T12:55:06.190Z,4.07
2019-03-26T12:57:35.056Z,4.43
2019-03-26T13:00:05.508Z,2.77
2019-03-26T13:02:35.939Z,1.97
2019-03-26T13:05:06.846Z,7.30
2019-03-26T13:07:35.595Z,4.97
2019-03-26T13:10:13.333Z,3.90
2019-03-26T13:12:38.076Z,4.43
2019-03-26T13:15:07.852Z,6.90
2019-03-26T13:17:36.690Z,3.37
2019-03-26T13:20:07.244Z,4.00
2019-03-26T13:22:36.076Z,10.87
2019-03-26T13:25:06.722Z,7.37
2019-03-26T13:27:35.561Z,3.80
2019-03-26T13:30:08.282Z,3.13
2019-03-26T13:32:37.141Z,3.40
2019-03-26T13:35:07.756Z,7.30
2019-03-26T13:37:36.619Z,2.10
2019-03-26T13:40:06.483Z,7.13
2019-03-26T13:42:35.292Z,7.67
2019-03-26T13:45:05.904Z,5.47
2019-03-26T13:47:34.686Z,4.63
2019-03-26T13:50:05.422Z,5.07
2019-03-26T13:52:34.117Z,4.80
2019-03-26T13:55:02.949Z,3.03
2019-03-26T13:57:31.789Z,5.50
2019-03-26T14:00:00.524Z,5.60
2019-03-26T14:02:29.357Z,5.87
2019-03-26T14:05:17.030Z,2.90
2019-03-26T14:07:45.852Z,5.17
2019-03-26T14:10:14.826Z,3.63
2019-03-26T14:12:43.653Z,2.90
2019-03-26T14:15:12.476Z,2.50
2019-03-26T14:17:41.341Z,4.93
2019-03-26T14:20:10.339Z,5.10
2019-03-26T14:22:39.242Z,2.83
2019-03-26T14:25:08.094Z,3.80
2019-03-26T14:27:36.938Z,3.43
2019-03-26T14:30:08.707Z,5.30
2019-03-26T14:32:37.588Z,6.70
2019-03-26T14:35:06.941Z,4.70
2019-03-26T14:37:35.781Z,3.57
2019-03-26T14:40:06.294Z,4.63
2019-03-26T14:42:35.108Z,1.40
2019-03-26T14:45:05.907Z,2.43
2019-03-26T14:47:34.767Z,1.90
2019-03-26T14:50:05.708Z,1.40
2019-03-26T14:52:34.806Z,2.70
2019-03-26T14:55:04.396Z,3.03
2019-03-26T14:57:33.221Z,2.00
2019-03-26T15:00:02.060Z,2.23
2019-03-26T15:02:30.867Z,5.00
2019-03-26T15:04:59.709Z,2.03
2019-03-26T15:07:28.541Z,2.13
2019-03-26T15:09:57.445Z,2.00
2019-03-26T15:12:26.267Z,2.50
2019-03-26T15:14:55.030Z,2.97
2019-03-26T15:17:23.916Z,2.63
2019-03-26T15:19:55.127Z,2.60
2019-03-26T15:22:23.159Z,5.77
2019-03-26T15:24:52.052Z,1.93
2019-03-26T15:27:20.828Z,4.60
2019-03-26T15:29:49.636Z,1.67
2019-03-26T15:32:18.450Z,7.87
2019-03-26T15:34:47.268Z,7.60
2019-03-26T15:37:16.102Z,3.60
2019-03-26T15:39:45.004Z,3.10
2019-03-26T15:42:13.807Z,1.90
2019-03-26T15:44:42.596Z,5.73
2019-03-26T15:47:11.493Z,4.73
2019-03-26T15:49:40.325Z,3.43
2019-03-26T15:52:09.138Z,3.20
2019-03-26T15:54:38.054Z,3.10
2019-03-26T15:57:06.812Z,5.30
2019-03-26T15:59:35.670Z,3.60
2019-03-26T16:02:04.476Z,3.63
2019-03-26T16:04:33.286Z,3.50
2019-03-26T16:07:02.052Z,6.60
2019-03-26T16:09:30.960Z,3.63
2019-03-26T16:11:59.716Z,2.43
2019-03-26T16:14:28.483Z,5.00
2019-03-26T16:16:57.381Z,2.73
2019-03-26T16:19:32.131Z,3.97
2019-03-26T16:21:56.660Z,1.60
2019-03-26T16:24:25.563Z,3.03
2019-03-26T16:26:54.860Z,2.47
2019-03-26T16:29:25.910Z,3.97
2019-03-26T16:31:54.252Z,2.57
2019-03-26T16:34:23.186Z,4.87
2019-03-26T16:36:59.434Z,4.10
2019-03-26T16:39:22.684Z,2.67
2019-03-26T16:41:51.516Z,1.37
2019-03-26T16:44:20.259Z,6.43
2019-03-26T16:46:49.061Z,6.40
2019-03-26T16:49:18.014Z,5.20
2019-03-26T16:51:48.469Z,4.80
2019-03-26T16:54:17.418Z,7.70
2019-03-26T16:56:46.285Z,3.53
2019-03-26T17:01:51.101Z,2.77
2019-03-26T17:04:19.933Z,3.87
2019-03-26T17:06:48.784Z,6.23
2019-03-26T17:09:17.679Z,5.30
2019-03-26T17:11:46.534Z,4.10
2019-03-26T17:14:15.364Z,4.27
2019-03-26T17:16:44.517Z,3.10
2019-03-26T17:19:13.364Z,2.27
2019-03-26T17:21:42.220Z,5.13
2019-03-26T17:24:11.101Z,2.73
2019-03-26T17:26:39.916Z,2.40
2019-03-26T17:29:08.756Z,10.03
2019-03-26T17:31:37.573Z,5.73
2019-03-26T17:34:06.388Z,4.23
2019-03-26T17:36:35.828Z,6.57
2019-03-26T17:39:07.689Z,4.27
2019-03-26T17:41:36.536Z,4.33
2019-03-26T17:44:05.340Z,8.07
2019-03-26T17:46:34.308Z,5.83
2019-03-26T17:49:03.145Z,3.60
2019-03-26T17:51:32.004Z,9.27
2019-03-26T17:54:00.907Z,2.00
2019-03-26T17:56:29.741Z,6.47
2019-03-26T17:58:58.597Z,3.60
2019-03-26T18:01:27.500Z,3.43
2019-03-26T18:03:56.314Z,4.00
2019-03-26T18:06:25.164Z,1.27
2019-03-26T18:08:53.964Z,2.30
2019-03-26T18:11:22.740Z,3.80
2019-03-26T18:13:51.547Z,2.43
2019-03-26T18:16:20.460Z,2.30
2019-03-26T18:18:49.373Z,6.87
2019-03-26T18:21:18.151Z,4.57
2019-03-26T18:23:47.050Z,3.70
2019-03-26T18:26:15.893Z,3.63
2019-03-26T18:28:44.757Z,1.77
2019-03-26T18:31:13.620Z,4.60
2019-03-26T18:33:42.364Z,4.77
2019-03-26T18:36:11.223Z,2.33
2019-03-26T18:38:41.740Z,3.37
2019-03-26T18:41:10.524Z,3.77
2019-03-26T18:43:39.357Z,5.73
2019-03-26T18:46:08.253Z,5.33
2019-03-26T18:48:37.076Z,3.83
2019-03-26T18:51:05.941Z,4.43
2019-03-26T18:53:34.908Z,6.40
2019-03-26T18:56:03.700Z,3.47
2019-03-26T18:58:32.558Z,4.83
2019-03-26T19:01:01.464Z,1.70
2019-03-26T19:03:30.348Z,7.37
2019-03-26T19:05:59.187Z,4.87
2019-03-26T19:08:28.070Z,8.40
2019-03-26T19:10:56.908Z,5.63
2019-03-26T19:13:25.766Z,5.07
2019-03-26T19:15:54.643Z,7.07
2019-03-26T19:18:23.478Z,7.00
2019-03-26T19:21:01.972Z,4.50
2019-03-26T19:23:22.920Z,6.77
2019-03-26T19:25:51.755Z,5.90
2019-03-26T19:28:20.949Z,3.63
2019-03-26T19:30:50.095Z,7.10
2019-03-26T19:33:18.917Z,4.60
2019-03-26T19:35:47.750Z,4.77
2019-03-26T19:38:17.052Z,4.23
2019-03-26T19:40:45.901Z,10.20
2019-03-26T19:43:15.773Z,6.10
2019-03-26T19:45:44.618Z,5.50
2019-03-26T19:48:13.461Z,2.67
2019-03-26T19:50:42.324Z,6.33
2019-03-26T19:53:11.237Z,2.17
2019-03-26T19:55:40.045Z,9.17
2019-03-26T19:58:08.893Z,2.63
2019-03-26T20:00:37.758Z,8.77
2019-03-26T20:03:06.541Z,7.47
2019-03-26T20:05:35.691Z,3.73
2019-03-26T20:08:04.813Z,8.47
2019-03-26T20:10:33.685Z,2.57
2019-03-26T20:13:03.926Z,5.30
2019-03-26T20:15:32.789Z,5.27
2019-03-26T20:18:01.613Z,3.83
2019-03-26T20:20:30.460Z,5.73
2019-03-26T20:22:59.319Z,2.57
2019-03-26T20:25:29.161Z,8.40
2019-03-26T20:27:57.957Z,4.53
2019-03-26T20:30:26.861Z,5.27
2019-03-26T20:32:55.683Z,4.50
2019-03-26T20:35:24.528Z,4.30
2019-03-26T20:37:53.374Z,4.33
2019-03-26T20:40:22.221Z,3.37
2019-03-26T20:42:51.043Z,2.30
2019-03-26T20:45:19.950Z,6.37
2019-03-26T20:47:48.788Z,6.23
2019-03-26T20:50:18.197Z,4.40
2019-03-26T20:52:47.117Z,3.77
2019-03-26T20:55:18.828Z,10.80
2019-03-26T20:57:48.774Z,5.20
2019-03-26T21:00:20.589Z,5.33
2019-03-26T21:02:49.428Z,4.17
2019-03-26T21:05:18.189Z,5.73
2019-03-26T21:07:47.935Z,6.10
2019-03-26T21:10:16.916Z,8.17
2019-03-26T21:12:45.743Z,8.07
2019-03-26T21:15:14.751Z,2.70
2019-03-26T21:17:43.565Z,6.37
2019-03-26T21:20:12.504Z,2.63
2019-03-26T21:22:41.339Z,8.03
2019-03-26T21:25:10.287Z,5.83
2019-03-26T21:27:39.124Z,7.00
2019-03-26T21:30:15.382Z,6.27
2019-03-26T21:32:41.372Z,6.03
2019-03-26T21:35:10.795Z,7.27
2019-03-26T21:37:39.797Z,18.97
2019-03-26T21:40:11.157Z,15.10
2019-03-26T21:42:40.126Z,13.37
2019-03-26T21:45:11.469Z,6.97
2019-03-26T21:47:40.204Z,5.67
2019-03-26T21:50:09.543Z,7.67
2019-03-26T21:52:38.438Z,5.70
2019-03-26T21:55:09.580Z,6.50
2019-03-26T21:57:38.413Z,3.13
2019-03-26T22:00:08.988Z,2.97
2019-03-26T22:02:37.818Z,3.43
2019-03-26T22:05:07.943Z,7.70
2019-03-26T22:07:36.760Z,4.73
2019-03-26T22:10:07.703Z,2.80
2019-03-26T22:12:36.621Z,3.77
2019-03-26T22:15:08.083Z,4.77
2019-03-26T22:17:36.918Z,5.90
2019-03-26T22:20:09.246Z,2.63
2019-03-26T22:22:38.148Z,3.33
2019-03-26T22:25:07.978Z,4.97
2019-03-26T22:27:36.797Z,3.63
2019-03-26T22:30:08.685Z,6.07
2019-03-26T22:32:37.412Z,3.70
2019-03-26T22:35:08.044Z,3.23
2019-03-26T22:37:36.898Z,7.93
2019-03-26T22:40:10.151Z,2.83
2019-03-26T22:42:38.948Z,10.53
2019-03-26T22:45:08.946Z,2.23
2019-03-26T22:47:39.162Z,6.63
2019-03-26T22:50:09.197Z,3.93
2019-03-26T22:52:37.995Z,5.00
2019-03-26T22:55:10.291Z,6.90
2019-03-26T22:57:39.236Z,3.20
2019-03-26T23:00:18.839Z,5.43
2019-03-26T23:02:47.643Z,1.83
2019-03-26T23:05:17.084Z,2.97
2019-03-26T23:07:45.877Z,4.40
2019-03-26T23:10:15.916Z,4.60
2019-03-26T23:12:44.732Z,1.83
2019-03-26T23:15:16.652Z,4.47
2019-03-26T23:17:45.442Z,2.73
2019-03-26T23:20:14.351Z,4.23
2019-03-26T23:22:43.130Z,4.30
2019-03-26T23:25:12.748Z,3.80
2019-03-26T23:27:41.892Z,4.93
2019-03-26T23:30:11.494Z,8.80
2019-03-26T23:32:41.139Z,2.37
2019-03-26T23:35:10.460Z,8.47
2019-03-26T23:37:39.255Z,7.10
2019-03-26T23:40:08.572Z,1.77
2019-03-26T23:42:37.400Z,6.40
2019-03-26T23:45:08.246Z,6.43
2019-03-26T23:47:37.029Z,3.17
2019-03-26T23:50:08.684Z,3.83
2019-03-26T23:52:37.676Z,2.40
2019-03-26T23:55:08.813Z,6.77
2019-03-26T23:57:37.829Z,4.00
